sensor_id;sensor_type;location;lat;lon;timestamp;temperature;humidity
10296;DHT22;5193;51.032;6.356;2022-12-15T00:02:01;-7.70;99.90
10296;DHT22;5193;51.032;6.356;2022-12-15T00:04:45;-7.70;99.90
10296;DHT22;5193;51.032;6.356;2022-12-15T00:07:29;-7.80;99.90
10296;DHT22;5193;51.032;6.356;2022-12-15T00:10:13;-7.80;99.90
10296;DHT22;5193;51.032;6.356;2022-12-15T00:12:58;-7.80;99.90
10296;DHT22;5193;51.032;6.356;2022-12-15T00:15:41;-7.80;99.90
10296;DHT22;5193;51.032;6.356;2022-12-15T00:18:28;-7.80;99.90
10296;DHT22;5193;51.032;6.356;2022-12-15T00:21:12;-7.90;99.90
10296;DHT22;5193;51.032;6.356;2022-12-15T00:23:56;-7.90;99.90
10296;DHT22;5193;51.032;6.356;2022-12-15T00:26:40;-7.90;99.90
10296;DHT22;5193;51.032;6.356;2022-12-15T00:29:24;-7.90;99.90
10296;DHT22;5193;51.032;6.356;2022-12-15T00:32:08;-8.00;99.90
10296;DHT22;5193;51.032;6.356;2022-12-15T00:34:52;-8.00;99.90
10296;DHT22;5193;51.032;6.356;2022-12-15T00:37:36;-8.00;99.90
10296;DHT22;5193;51.032;6.356;2022-12-15T00:40:20;-8.10;99.90
10296;DHT22;5193;51.032;6.356;2022-12-15T00:42:45;-8.10;99.90
10296;DHT22;5193;51.032;6.356;2022-12-15T00:45:11;-8.10;99.90
10296;DHT22;5193;51.032;6.356;2022-12-15T00:47:36;-8.10;99.90
10296;DHT22;5193;51.032;6.356;2022-12-15T00:50:02;-8.20;99.90
10296;DHT22;5193;51.032;6.356;2022-12-15T00:52:46;-8.20;99.90
10296;DHT22;5193;51.032;6.356;2022-12-15T00:55:31;-8.20;99.90
10296;DHT22;5193;51.032;6.356;2022-12-15T00:58:15;-8.20;99.90
10296;DHT22;5193;51.032;6.356;2022-12-15T01:01:08;-8.20;99.90
10296;DHT22;5193;51.032;6.356;2022-12-15T01:03:52;-8.20;99.90
10296;DHT22;5193;51.032;6.356;2022-12-15T01:06:37;-8.20;99.90
10296;DHT22;5193;51.032;6.356;2022-12-15T01:09:21;-8.20;99.90
10296;DHT22;5193;51.032;6.356;2022-12-15T01:12:05;-8.20;99.90
10296;DHT22;5193;51.032;6.356;2022-12-15T01:14:49;-8.20;99.90
10296;DHT22;5193;51.032;6.356;2022-12-15T01:17:33;-8.30;99.90
10296;DHT22;5193;51.032;6.356;2022-12-15T01:20:17;-8.30;99.90
10296;DHT22;5193;51.032;6.356;2022-12-15T01:22:53;-8.20;99.90
10296;DHT22;5193;51.032;6.356;2022-12-15T01:25:21;-8.30;99.90
10296;DHT22;5193;51.032;6.356;2022-12-15T01:27:48;-8.30;99.90
10296;DHT22;5193;51.032;6.356;2022-12-15T01:30:17;-8.30;99.90
10296;DHT22;5193;51.032;6.356;2022-12-15T01:32:43;-8.30;99.90
10296;DHT22;5193;51.032;6.356;2022-12-15T01:35:09;-8.30;99.90
10296;DHT22;5193;51.032;6.356;2022-12-15T01:37:35;-8.40;99.90
10296;DHT22;5193;51.032;6.356;2022-12-15T01:40:01;-8.40;99.90
10296;DHT22;5193;51.032;6.356;2022-12-15T01:42:46;-8.40;99.90
10296;DHT22;5193;51.032;6.356;2022-12-15T01:48:04;-8.40;99.90
10296;DHT22;5193;51.032;6.356;2022-12-15T01:50:34;-8.40;99.90
10296;DHT22;5193;51.032;6.356;2022-12-15T01:53:01;-8.40;99.90
10296;DHT22;5193;51.032;6.356;2022-12-15T01:55:28;-8.40;99.90
10296;DHT22;5193;51.032;6.356;2022-12-15T01:58:00;-8.40;99.90
10296;DHT22;5193;51.032;6.356;2022-12-15T02:00:26;-8.40;99.90
10296;DHT22;5193;51.032;6.356;2022-12-15T02:02:53;-8.40;99.90
10296;DHT22;5193;51.032;6.356;2022-12-15T02:05:20;-8.40;99.90
10296;DHT22;5193;51.032;6.356;2022-12-15T02:07:46;-8.40;99.90
10296;DHT22;5193;51.032;6.356;2022-12-15T02:10:11;-8.40;99.90
10296;DHT22;5193;51.032;6.356;2022-12-15T02:12:59;-8.40;99.90
10296;DHT22;5193;51.032;6.356;2022-12-15T02:15:33;-8.40;99.90
10296;DHT22;5193;51.032;6.356;2022-12-15T02:18:45;-8.40;99.90
10296;DHT22;5193;51.032;6.356;2022-12-15T02:20:52;-8.40;99.90
10296;DHT22;5193;51.032;6.356;2022-12-15T02:31:42;-8.40;99.90
10296;DHT22;5193;51.032;6.356;2022-12-15T02:34:30;-8.50;99.90
10296;DHT22;5193;51.032;6.356;2022-12-15T02:39:55;-8.50;99.90
10296;DHT22;5193;51.032;6.356;2022-12-15T02:42:21;-8.40;99.90
10296;DHT22;5193;51.032;6.356;2022-12-15T02:44:51;-8.40;99.90
10296;DHT22;5193;51.032;6.356;2022-12-15T02:47:36;-8.40;99.90
10296;DHT22;5193;51.032;6.356;2022-12-15T02:53:26;-8.30;99.90
10296;DHT22;5193;51.032;6.356;2022-12-15T02:59:03;-8.30;99.90
10296;DHT22;5193;51.032;6.356;2022-12-15T03:01:50;-8.30;99.90
10296;DHT22;5193;51.032;6.356;2022-12-15T03:04:18;-8.30;99.90
10296;DHT22;5193;51.032;6.356;2022-12-15T03:06:44;-8.40;99.90
10296;DHT22;5193;51.032;6.356;2022-12-15T03:09:10;-8.40;99.90
10296;DHT22;5193;51.032;6.356;2022-12-15T03:11:36;-8.40;99.90
10296;DHT22;5193;51.032;6.356;2022-12-15T03:14:02;-8.30;99.90
10296;DHT22;5193;51.032;6.356;2022-12-15T03:16:28;-8.30;99.90
10296;DHT22;5193;51.032;6.356;2022-12-15T03:18:53;-8.30;99.90
10296;DHT22;5193;51.032;6.356;2022-12-15T03:21:19;-8.30;99.90
10296;DHT22;5193;51.032;6.356;2022-12-15T03:23:45;-8.30;99.90
10296;DHT22;5193;51.032;6.356;2022-12-15T03:26:10;-8.30;99.90
10296;DHT22;5193;51.032;6.356;2022-12-15T03:28:36;-8.30;99.90
10296;DHT22;5193;51.032;6.356;2022-12-15T03:31:02;-8.30;99.90
10296;DHT22;5193;51.032;6.356;2022-12-15T03:33:28;-8.30;99.90
10296;DHT22;5193;51.032;6.356;2022-12-15T03:35:54;-8.40;99.90
10296;DHT22;5193;51.032;6.356;2022-12-15T03:38:19;-8.40;99.90
10296;DHT22;5193;51.032;6.356;2022-12-15T03:40:45;-8.40;99.90
10296;DHT22;5193;51.032;6.356;2022-12-15T03:43:10;-8.40;99.90
10296;DHT22;5193;51.032;6.356;2022-12-15T03:45:36;-8.40;99.90
10296;DHT22;5193;51.032;6.356;2022-12-15T03:48:02;-8.40;99.90
10296;DHT22;5193;51.032;6.356;2022-12-15T03:50:28;-8.30;99.90
10296;DHT22;5193;51.032;6.356;2022-12-15T03:53:03;-8.30;99.90
10296;DHT22;5193;51.032;6.356;2022-12-15T03:55:29;-8.30;99.90
10296;DHT22;5193;51.032;6.356;2022-12-15T03:57:56;-8.30;99.90
10296;DHT22;5193;51.032;6.356;2022-12-15T04:00:22;-8.30;99.90
10296;DHT22;5193;51.032;6.356;2022-12-15T04:02:49;-8.40;99.90
10296;DHT22;5193;51.032;6.356;2022-12-15T04:05:23;-8.40;99.90
10296;DHT22;5193;51.032;6.356;2022-12-15T04:07:50;-8.40;99.90
10296;DHT22;5193;51.032;6.356;2022-12-15T04:10:16;-8.40;99.90
10296;DHT22;5193;51.032;6.356;2022-12-15T04:12:41;-8.30;99.90
10296;DHT22;5193;51.032;6.356;2022-12-15T04:15:08;-8.30;99.90
10296;DHT22;5193;51.032;6.356;2022-12-15T04:17:34;-8.30;99.90
10296;DHT22;5193;51.032;6.356;2022-12-15T04:20:00;-8.30;99.90
10296;DHT22;5193;51.032;6.356;2022-12-15T04:22:39;-8.30;99.90
10296;DHT22;5193;51.032;6.356;2022-12-15T04:25:11;-8.30;99.90
10296;DHT22;5193;51.032;6.356;2022-12-15T04:27:55;-8.30;99.90
10296;DHT22;5193;51.032;6.356;2022-12-15T04:30:45;-8.40;99.90
10296;DHT22;5193;51.032;6.356;2022-12-15T04:33:30;-8.40;99.90
10296;DHT22;5193;51.032;6.356;2022-12-15T04:36:16;-8.40;99.90
10296;DHT22;5193;51.032;6.356;2022-12-15T04:39:03;-8.40;99.90
10296;DHT22;5193;51.032;6.356;2022-12-15T04:41:47;-8.40;99.90
10296;DHT22;5193;51.032;6.356;2022-12-15T04:44:31;-8.30;99.90
10296;DHT22;5193;51.032;6.356;2022-12-15T04:47:15;-8.40;99.90
10296;DHT22;5193;51.032;6.356;2022-12-15T04:49:59;-8.40;99.90
10296;DHT22;5193;51.032;6.356;2022-12-15T04:52:43;-8.40;99.90
10296;DHT22;5193;51.032;6.356;2022-12-15T04:55:27;-8.40;99.90
10296;DHT22;5193;51.032;6.356;2022-12-15T04:58:11;-8.40;99.90
10296;DHT22;5193;51.032;6.356;2022-12-15T05:00:58;-8.40;99.90
10296;DHT22;5193;51.032;6.356;2022-12-15T05:03:42;-8.50;99.90
10296;DHT22;5193;51.032;6.356;2022-12-15T05:06:26;-8.40;99.90
10296;DHT22;5193;51.032;6.356;2022-12-15T05:09:10;-8.40;99.90
10296;DHT22;5193;51.032;6.356;2022-12-15T05:11:54;-8.40;99.90
10296;DHT22;5193;51.032;6.356;2022-12-15T05:14:38;-8.50;99.90
10296;DHT22;5193;51.032;6.356;2022-12-15T05:17:22;-8.50;99.90
10296;DHT22;5193;51.032;6.356;2022-12-15T05:20:06;-8.50;99.90
10296;DHT22;5193;51.032;6.356;2022-12-15T05:22:56;-8.50;99.90
10296;DHT22;5193;51.032;6.356;2022-12-15T05:25:41;-8.50;99.90
10296;DHT22;5193;51.032;6.356;2022-12-15T05:28:26;-8.50;99.90
10296;DHT22;5193;51.032;6.356;2022-12-15T05:31:10;-8.40;99.90
10296;DHT22;5193;51.032;6.356;2022-12-15T05:33:55;-8.40;99.90
10296;DHT22;5193;51.032;6.356;2022-12-15T05:36:22;-8.40;99.90
10296;DHT22;5193;51.032;6.356;2022-12-15T05:38:51;-8.40;99.90
10296;DHT22;5193;51.032;6.356;2022-12-15T05:41:18;-8.40;99.90
10296;DHT22;5193;51.032;6.356;2022-12-15T05:43:45;-8.50;99.90
10296;DHT22;5193;51.032;6.356;2022-12-15T05:46:11;-8.50;99.90
10296;DHT22;5193;51.032;6.356;2022-12-15T05:48:37;-8.50;99.90
10296;DHT22;5193;51.032;6.356;2022-12-15T05:51:07;-8.50;99.90
10296;DHT22;5193;51.032;6.356;2022-12-15T05:53:34;-8.50;99.90
10296;DHT22;5193;51.032;6.356;2022-12-15T05:56:01;-8.50;99.90
10296;DHT22;5193;51.032;6.356;2022-12-15T05:58:27;-8.50;99.90
10296;DHT22;5193;51.032;6.356;2022-12-15T06:00:52;-8.50;99.90
10296;DHT22;5193;51.032;6.356;2022-12-15T06:03:18;-8.50;99.90
10296;DHT22;5193;51.032;6.356;2022-12-15T06:05:43;-8.50;99.90
10296;DHT22;5193;51.032;6.356;2022-12-15T06:08:09;-8.60;99.90
10296;DHT22;5193;51.032;6.356;2022-12-15T06:10:34;-8.60;99.90
10296;DHT22;5193;51.032;6.356;2022-12-15T06:13:00;-8.60;99.90
10296;DHT22;5193;51.032;6.356;2022-12-15T06:15:26;-8.60;99.90
10296;DHT22;5193;51.032;6.356;2022-12-15T06:17:51;-8.70;99.90
10296;DHT22;5193;51.032;6.356;2022-12-15T06:20:20;-8.70;99.90
10296;DHT22;5193;51.032;6.356;2022-12-15T06:22:45;-8.70;99.90
10296;DHT22;5193;51.032;6.356;2022-12-15T06:25:11;-8.70;99.90
10296;DHT22;5193;51.032;6.356;2022-12-15T06:27:36;-8.70;99.90
10296;DHT22;5193;51.032;6.356;2022-12-15T06:30:02;-8.80;99.90
10296;DHT22;5193;51.032;6.356;2022-12-15T06:32:28;-8.70;99.90
10296;DHT22;5193;51.032;6.356;2022-12-15T06:34:53;-8.70;99.90
10296;DHT22;5193;51.032;6.356;2022-12-15T06:37:19;-8.70;99.90
10296;DHT22;5193;51.032;6.356;2022-12-15T06:39:44;-8.80;99.90
10296;DHT22;5193;51.032;6.356;2022-12-15T06:42:10;-8.80;99.90
10296;DHT22;5193;51.032;6.356;2022-12-15T06:44:36;-8.80;99.90
10296;DHT22;5193;51.032;6.356;2022-12-15T06:47:01;-8.80;99.90
10296;DHT22;5193;51.032;6.356;2022-12-15T06:49:28;-8.80;99.90
10296;DHT22;5193;51.032;6.356;2022-12-15T06:51:53;-8.80;99.90
10296;DHT22;5193;51.032;6.356;2022-12-15T06:54:19;-8.80;99.90
10296;DHT22;5193;51.032;6.356;2022-12-15T06:56:44;-8.80;99.90
10296;DHT22;5193;51.032;6.356;2022-12-15T06:59:10;-8.80;99.90
10296;DHT22;5193;51.032;6.356;2022-12-15T07:01:36;-8.80;99.90
10296;DHT22;5193;51.032;6.356;2022-12-15T07:04:02;-8.80;99.90
10296;DHT22;5193;51.032;6.356;2022-12-15T07:06:36;-8.80;99.90
10296;DHT22;5193;51.032;6.356;2022-12-15T07:09:04;-8.80;99.90
10296;DHT22;5193;51.032;6.356;2022-12-15T07:11:31;-8.80;99.90
10296;DHT22;5193;51.032;6.356;2022-12-15T07:13:57;-8.80;99.90
10296;DHT22;5193;51.032;6.356;2022-12-15T07:16:24;-8.90;99.90
10296;DHT22;5193;51.032;6.356;2022-12-15T07:18:49;-8.80;99.90
10296;DHT22;5193;51.032;6.356;2022-12-15T07:21:16;-8.80;99.90
10296;DHT22;5193;51.032;6.356;2022-12-15T07:23:41;-8.80;99.90
10296;DHT22;5193;51.032;6.356;2022-12-15T07:26:08;-8.70;99.90
10296;DHT22;5193;51.032;6.356;2022-12-15T07:28:35;-8.60;99.90
10296;DHT22;5193;51.032;6.356;2022-12-15T07:31:06;-8.60;99.90
10296;DHT22;5193;51.032;6.356;2022-12-15T07:33:33;-8.50;99.90
10296;DHT22;5193;51.032;6.356;2022-12-15T07:35:59;-8.50;99.90
10296;DHT22;5193;51.032;6.356;2022-12-15T07:38:26;-8.50;99.90
10296;DHT22;5193;51.032;6.356;2022-12-15T07:40:52;-8.50;99.90
10296;DHT22;5193;51.032;6.356;2022-12-15T07:43:17;-8.50;99.90
10296;DHT22;5193;51.032;6.356;2022-12-15T07:45:43;-8.50;99.90
10296;DHT22;5193;51.032;6.356;2022-12-15T07:48:09;-8.40;99.90
10296;DHT22;5193;51.032;6.356;2022-12-15T07:50:36;-8.40;99.90
10296;DHT22;5193;51.032;6.356;2022-12-15T07:53:04;-8.40;99.90
10296;DHT22;5193;51.032;6.356;2022-12-15T07:55:30;-8.40;99.90
10296;DHT22;5193;51.032;6.356;2022-12-15T07:57:55;-8.40;99.90
10296;DHT22;5193;51.032;6.356;2022-12-15T08:00:21;-8.40;99.90
10296;DHT22;5193;51.032;6.356;2022-12-15T08:02:46;-8.40;99.90
10296;DHT22;5193;51.032;6.356;2022-12-15T08:05:12;-8.30;99.90
10296;DHT22;5193;51.032;6.356;2022-12-15T08:07:37;-8.30;99.90
10296;DHT22;5193;51.032;6.356;2022-12-15T08:10:03;-8.30;99.90
10296;DHT22;5193;51.032;6.356;2022-12-15T08:12:29;-8.20;99.90
10296;DHT22;5193;51.032;6.356;2022-12-15T08:14:55;-8.10;99.90
10296;DHT22;5193;51.032;6.356;2022-12-15T08:17:21;-8.10;99.90
10296;DHT22;5193;51.032;6.356;2022-12-15T08:19:47;-8.10;99.90
10296;DHT22;5193;51.032;6.356;2022-12-15T08:22:12;-8.00;99.90
10296;DHT22;5193;51.032;6.356;2022-12-15T08:24:41;-7.90;99.90
10296;DHT22;5193;51.032;6.356;2022-12-15T08:27:07;-7.80;99.90
10296;DHT22;5193;51.032;6.356;2022-12-15T08:29:33;-7.70;99.90
10296;DHT22;5193;51.032;6.356;2022-12-15T08:31:59;-7.60;99.90
10296;DHT22;5193;51.032;6.356;2022-12-15T08:34:25;-7.60;99.90
10296;DHT22;5193;51.032;6.356;2022-12-15T08:36:50;-7.50;99.90
10296;DHT22;5193;51.032;6.356;2022-12-15T08:39:16;-7.40;99.90
10296;DHT22;5193;51.032;6.356;2022-12-15T08:41:42;-7.30;99.90
10296;DHT22;5193;51.032;6.356;2022-12-15T08:44:08;-7.30;99.90
10296;DHT22;5193;51.032;6.356;2022-12-15T08:46:34;-7.20;99.90
10296;DHT22;5193;51.032;6.356;2022-12-15T08:49:00;-7.20;99.90
10296;DHT22;5193;51.032;6.356;2022-12-15T08:51:28;-7.20;99.90
10296;DHT22;5193;51.032;6.356;2022-12-15T08:53:57;-7.10;99.90
10296;DHT22;5193;51.032;6.356;2022-12-15T08:56:25;-7.00;99.90
10296;DHT22;5193;51.032;6.356;2022-12-15T08:58:59;-6.90;99.90
10296;DHT22;5193;51.032;6.356;2022-12-15T09:01:27;-6.90;99.90
10296;DHT22;5193;51.032;6.356;2022-12-15T09:03:54;-6.80;99.90
10296;DHT22;5193;51.032;6.356;2022-12-15T09:06:26;-6.70;99.90
10296;DHT22;5193;51.032;6.356;2022-12-15T09:08:57;-6.70;99.90
10296;DHT22;5193;51.032;6.356;2022-12-15T09:11:24;-6.60;99.90
10296;DHT22;5193;51.032;6.356;2022-12-15T09:13:50;-6.50;99.90
10296;DHT22;5193;51.032;6.356;2022-12-15T09:16:17;-6.50;99.90
10296;DHT22;5193;51.032;6.356;2022-12-15T09:18:47;-6.30;99.90
10296;DHT22;5193;51.032;6.356;2022-12-15T09:21:14;-6.20;99.90
10296;DHT22;5193;51.032;6.356;2022-12-15T09:23:40;-6.10;99.90
10296;DHT22;5193;51.032;6.356;2022-12-15T09:26:08;-6.00;99.90
10296;DHT22;5193;51.032;6.356;2022-12-15T09:28:34;-5.90;99.90
10296;DHT22;5193;51.032;6.356;2022-12-15T09:31:07;-5.80;99.90
10296;DHT22;5193;51.032;6.356;2022-12-15T09:33:34;-5.70;99.90
10296;DHT22;5193;51.032;6.356;2022-12-15T09:36:00;-5.60;99.90
10296;DHT22;5193;51.032;6.356;2022-12-15T09:38:26;-5.50;99.90
10296;DHT22;5193;51.032;6.356;2022-12-15T09:40:52;-5.40;99.90
10296;DHT22;5193;51.032;6.356;2022-12-15T09:43:23;-5.20;99.90
10296;DHT22;5193;51.032;6.356;2022-12-15T09:46:05;-5.10;99.90
10296;DHT22;5193;51.032;6.356;2022-12-15T09:48:40;-5.00;99.90
10296;DHT22;5193;51.032;6.356;2022-12-15T09:51:11;-4.90;99.90
10296;DHT22;5193;51.032;6.356;2022-12-15T09:53:37;-4.80;99.90
10296;DHT22;5193;51.032;6.356;2022-12-15T09:56:14;-4.70;99.90
10296;DHT22;5193;51.032;6.356;2022-12-15T09:59:11;-4.60;99.90
10296;DHT22;5193;51.032;6.356;2022-12-15T10:01:59;-4.50;99.90
10296;DHT22;5193;51.032;6.356;2022-12-15T10:04:51;-4.40;99.90
10296;DHT22;5193;51.032;6.356;2022-12-15T10:07:43;-4.30;99.90
10296;DHT22;5193;51.032;6.356;2022-12-15T10:10:24;-4.20;99.90
10296;DHT22;5193;51.032;6.356;2022-12-15T10:12:56;-4.20;99.90
10296;DHT22;5193;51.032;6.356;2022-12-15T10:15:28;-4.20;99.90
10296;DHT22;5193;51.032;6.356;2022-12-15T10:18:12;-4.10;99.90
10296;DHT22;5193;51.032;6.356;2022-12-15T10:20:40;-4.10;99.90
10296;DHT22;5193;51.032;6.356;2022-12-15T10:23:12;-4.00;99.90
10296;DHT22;5193;51.032;6.356;2022-12-15T10:25:38;-4.00;99.90
10296;DHT22;5193;51.032;6.356;2022-12-15T10:28:11;-3.90;99.90
10296;DHT22;5193;51.032;6.356;2022-12-15T10:31:22;-3.80;99.90
10296;DHT22;5193;51.032;6.356;2022-12-15T10:33:55;-3.70;99.90
10296;DHT22;5193;51.032;6.356;2022-12-15T10:36:21;-3.60;99.90
10296;DHT22;5193;51.032;6.356;2022-12-15T10:38:47;-3.60;99.90
10296;DHT22;5193;51.032;6.356;2022-12-15T10:41:16;-3.50;99.90
10296;DHT22;5193;51.032;6.356;2022-12-15T10:43:48;-3.50;99.90
10296;DHT22;5193;51.032;6.356;2022-12-15T10:46:16;-3.50;99.90
10296;DHT22;5193;51.032;6.356;2022-12-15T10:48:57;-3.40;99.90
10296;DHT22;5193;51.032;6.356;2022-12-15T10:51:29;-3.40;99.90
10296;DHT22;5193;51.032;6.356;2022-12-15T10:56:27;-3.30;99.90
10296;DHT22;5193;51.032;6.356;2022-12-15T10:58:55;-3.30;99.90
10296;DHT22;5193;51.032;6.356;2022-12-15T11:01:32;-3.20;99.90
10296;DHT22;5193;51.032;6.356;2022-12-15T11:03:58;-3.20;99.90
10296;DHT22;5193;51.032;6.356;2022-12-15T11:06:31;-3.10;99.90
10296;DHT22;5193;51.032;6.356;2022-12-15T11:09:23;-3.10;99.90
10296;DHT22;5193;51.032;6.356;2022-12-15T11:11:49;-3.10;99.90
10296;DHT22;5193;51.032;6.356;2022-12-15T11:14:46;-3.00;99.90
10296;DHT22;5193;51.032;6.356;2022-12-15T11:17:17;-3.00;99.90
10296;DHT22;5193;51.032;6.356;2022-12-15T11:20:05;-2.90;99.90
10296;DHT22;5193;51.032;6.356;2022-12-15T11:22:38;-2.80;99.90
10296;DHT22;5193;51.032;6.356;2022-12-15T11:25:48;-2.70;99.90
10296;DHT22;5193;51.032;6.356;2022-12-15T11:29:04;-2.70;99.90
10296;DHT22;5193;51.032;6.356;2022-12-15T11:31:32;-2.60;99.90
10296;DHT22;5193;51.032;6.356;2022-12-15T11:33:59;-2.50;99.90
10296;DHT22;5193;51.032;6.356;2022-12-15T11:39:17;-2.40;99.90
10296;DHT22;5193;51.032;6.356;2022-12-15T11:44:27;-2.20;99.90
10296;DHT22;5193;51.032;6.356;2022-12-15T11:50:16;-2.00;99.90
10296;DHT22;5193;51.032;6.356;2022-12-15T11:52:45;-1.90;99.90
10296;DHT22;5193;51.032;6.356;2022-12-15T11:55:22;-1.90;99.90
10296;DHT22;5193;51.032;6.356;2022-12-15T11:58:07;-1.80;99.90
10296;DHT22;5193;51.032;6.356;2022-12-15T12:06:30;-1.70;99.90
10296;DHT22;5193;51.032;6.356;2022-12-15T12:09:40;-1.60;99.90
10296;DHT22;5193;51.032;6.356;2022-12-15T12:12:24;-1.60;99.90
10296;DHT22;5193;51.032;6.356;2022-12-15T12:15:18;-1.50;99.90
10296;DHT22;5193;51.032;6.356;2022-12-15T12:18:00;-1.50;99.90
10296;DHT22;5193;51.032;6.356;2022-12-15T12:20:50;-1.40;99.90
10296;DHT22;5193;51.032;6.356;2022-12-15T12:23:27;-1.40;99.90
10296;DHT22;5193;51.032;6.356;2022-12-15T12:29:14;-1.20;99.90
10296;DHT22;5193;51.032;6.356;2022-12-15T12:34:14;-1.10;99.90
10296;DHT22;5193;51.032;6.356;2022-12-15T12:36:43;-1.10;99.90
10296;DHT22;5193;51.032;6.356;2022-12-15T12:39:18;-1.10;99.90
10296;DHT22;5193;51.032;6.356;2022-12-15T12:42:09;-1.00;99.90
10296;DHT22;5193;51.032;6.356;2022-12-15T12:44:37;-0.90;99.90
10296;DHT22;5193;51.032;6.356;2022-12-15T12:47:23;-0.90;99.90
10296;DHT22;5193;51.032;6.356;2022-12-15T12:49:55;-0.90;99.90
10296;DHT22;5193;51.032;6.356;2022-12-15T12:54:59;-0.80;99.90
10296;DHT22;5193;51.032;6.356;2022-12-15T12:57:40;-0.70;99.90
10296;DHT22;5193;51.032;6.356;2022-12-15T13:00:13;-0.70;99.90
10296;DHT22;5193;51.032;6.356;2022-12-15T13:02:44;-0.60;99.90
10296;DHT22;5193;51.032;6.356;2022-12-15T13:10:36;-0.50;99.90
10296;DHT22;5193;51.032;6.356;2022-12-15T13:19:00;-0.40;99.90
10296;DHT22;5193;51.032;6.356;2022-12-15T13:24:33;-0.30;99.90
10296;DHT22;5193;51.032;6.356;2022-12-15T13:29:35;-0.30;99.90
10296;DHT22;5193;51.032;6.356;2022-12-15T13:32:01;-0.30;99.90
10296;DHT22;5193;51.032;6.356;2022-12-15T13:34:37;-0.20;99.90
10296;DHT22;5193;51.032;6.356;2022-12-15T13:42:56;-0.10;99.90
10296;DHT22;5193;51.032;6.356;2022-12-15T13:47:59;-0.10;99.90
10296;DHT22;5193;51.032;6.356;2022-12-15T13:50:32;-0.10;99.90
10296;DHT22;5193;51.032;6.356;2022-12-15T13:53:02;-0.10;99.90
10296;DHT22;5193;51.032;6.356;2022-12-15T13:55:36;-0.10;99.90
10296;DHT22;5193;51.032;6.356;2022-12-15T13:58:09;-0.10;99.90
10296;DHT22;5193;51.032;6.356;2022-12-15T14:00:38;-0.10;99.90
10296;DHT22;5193;51.032;6.356;2022-12-15T14:03:05;-0.10;99.90
10296;DHT22;5193;51.032;6.356;2022-12-15T14:05:31;0.00;99.90
10296;DHT22;5193;51.032;6.356;2022-12-15T14:07:59;-0.10;99.90
10296;DHT22;5193;51.032;6.356;2022-12-15T14:10:49;-0.10;99.90
10296;DHT22;5193;51.032;6.356;2022-12-15T14:13:27;-0.10;99.90
10296;DHT22;5193;51.032;6.356;2022-12-15T14:15:54;-0.10;99.90
10296;DHT22;5193;51.032;6.356;2022-12-15T14:18:32;-0.10;99.90
10296;DHT22;5193;51.032;6.356;2022-12-15T14:21:00;-0.10;99.90
10296;DHT22;5193;51.032;6.356;2022-12-15T14:23:28;-0.10;99.90
10296;DHT22;5193;51.032;6.356;2022-12-15T14:26:00;-0.20;99.90
10296;DHT22;5193;51.032;6.356;2022-12-15T14:28:32;-0.20;99.90
10296;DHT22;5193;51.032;6.356;2022-12-15T14:31:24;-0.20;99.90
10296;DHT22;5193;51.032;6.356;2022-12-15T14:34:02;-0.30;99.90
10296;DHT22;5193;51.032;6.356;2022-12-15T14:36:31;-0.30;99.90
10296;DHT22;5193;51.032;6.356;2022-12-15T14:39:05;-0.40;99.90
10296;DHT22;5193;51.032;6.356;2022-12-15T14:41:39;-0.50;99.90
10296;DHT22;5193;51.032;6.356;2022-12-15T14:44:17;-0.50;99.90
10296;DHT22;5193;51.032;6.356;2022-12-15T14:46:47;-0.60;99.90
10296;DHT22;5193;51.032;6.356;2022-12-15T14:49:19;-0.60;99.90
10296;DHT22;5193;51.032;6.356;2022-12-15T14:51:48;-0.70;99.90
10296;DHT22;5193;51.032;6.356;2022-12-15T14:54:51;-0.70;99.90
10296;DHT22;5193;51.032;6.356;2022-12-15T14:57:26;-0.70;99.90
10296;DHT22;5193;51.032;6.356;2022-12-15T14:59:52;-0.70;99.90
10296;DHT22;5193;51.032;6.356;2022-12-15T15:04:58;-0.80;99.90
10296;DHT22;5193;51.032;6.356;2022-12-15T15:07:25;-0.90;99.90
10296;DHT22;5193;51.032;6.356;2022-12-15T15:09:53;-1.00;99.90
10296;DHT22;5193;51.032;6.356;2022-12-15T15:12:21;-1.00;99.90
10296;DHT22;5193;51.032;6.356;2022-12-15T15:19:53;-1.30;99.90
10296;DHT22;5193;51.032;6.356;2022-12-15T15:22:33;-1.30;99.90
10296;DHT22;5193;51.032;6.356;2022-12-15T15:25:00;-1.40;99.90
10296;DHT22;5193;51.032;6.356;2022-12-15T15:27:34;-1.50;99.90
10296;DHT22;5193;51.032;6.356;2022-12-15T15:33:09;-1.60;99.90
10296;DHT22;5193;51.032;6.356;2022-12-15T15:35:37;-1.70;99.90
10296;DHT22;5193;51.032;6.356;2022-12-15T15:38:27;-1.70;99.90
10296;DHT22;5193;51.032;6.356;2022-12-15T15:40:58;-1.80;99.90
10296;DHT22;5193;51.032;6.356;2022-12-15T15:43:25;-1.90;99.90
10296;DHT22;5193;51.032;6.356;2022-12-15T15:46:05;-1.90;99.90
10296;DHT22;5193;51.032;6.356;2022-12-15T15:48:40;-2.10;99.90
10296;DHT22;5193;51.032;6.356;2022-12-15T15:51:06;-2.10;99.90
10296;DHT22;5193;51.032;6.356;2022-12-15T15:53:33;-2.20;99.90
10296;DHT22;5193;51.032;6.356;2022-12-15T15:56:01;-2.30;99.90
10296;DHT22;5193;51.032;6.356;2022-12-15T15:58:27;-2.30;99.90
10296;DHT22;5193;51.032;6.356;2022-12-15T16:00:52;-2.40;99.90
10296;DHT22;5193;51.032;6.356;2022-12-15T16:03:18;-2.50;99.90
10296;DHT22;5193;51.032;6.356;2022-12-15T16:05:44;-2.50;99.90
10296;DHT22;5193;51.032;6.356;2022-12-15T16:08:14;-2.60;99.90
10296;DHT22;5193;51.032;6.356;2022-12-15T16:10:42;-2.70;99.90
10296;DHT22;5193;51.032;6.356;2022-12-15T16:13:10;-2.70;99.90
10296;DHT22;5193;51.032;6.356;2022-12-15T16:15:36;-2.80;99.90
10296;DHT22;5193;51.032;6.356;2022-12-15T16:18:02;-2.80;99.90
10296;DHT22;5193;51.032;6.356;2022-12-15T16:20:28;-2.80;99.90
10296;DHT22;5193;51.032;6.356;2022-12-15T16:23:00;-2.90;99.90
10296;DHT22;5193;51.032;6.356;2022-12-15T16:25:30;-2.90;99.90
10296;DHT22;5193;51.032;6.356;2022-12-15T16:27:57;-3.00;99.90
10296;DHT22;5193;51.032;6.356;2022-12-15T16:30:24;-3.00;99.90
10296;DHT22;5193;51.032;6.356;2022-12-15T16:32:51;-3.10;99.90
10296;DHT22;5193;51.032;6.356;2022-12-15T16:35:17;-3.10;99.90
10296;DHT22;5193;51.032;6.356;2022-12-15T16:37:44;-3.20;99.90
10296;DHT22;5193;51.032;6.356;2022-12-15T16:40:18;-3.20;99.90
10296;DHT22;5193;51.032;6.356;2022-12-15T16:43:00;-3.30;99.90
10296;DHT22;5193;51.032;6.356;2022-12-15T16:45:29;-3.30;99.90
10296;DHT22;5193;51.032;6.356;2022-12-15T16:47:55;-3.40;99.90
10296;DHT22;5193;51.032;6.356;2022-12-15T16:50:30;-3.50;99.90
10296;DHT22;5193;51.032;6.356;2022-12-15T16:52:58;-3.50;99.90
10296;DHT22;5193;51.032;6.356;2022-12-15T16:55:27;-3.60;99.90
10296;DHT22;5193;51.032;6.356;2022-12-15T16:58:03;-3.60;99.90
10296;DHT22;5193;51.032;6.356;2022-12-15T17:00:31;-3.70;99.90
10296;DHT22;5193;51.032;6.356;2022-12-15T17:02:58;-3.70;99.90
10296;DHT22;5193;51.032;6.356;2022-12-15T17:05:26;-3.80;99.90
10296;DHT22;5193;51.032;6.356;2022-12-15T17:07:55;-3.80;99.90
10296;DHT22;5193;51.032;6.356;2022-12-15T17:10:24;-4.00;99.90
10296;DHT22;5193;51.032;6.356;2022-12-15T17:12:50;-4.00;99.90
10296;DHT22;5193;51.032;6.356;2022-12-15T17:15:23;-4.00;99.90
10296;DHT22;5193;51.032;6.356;2022-12-15T17:17:49;-4.10;99.90
10296;DHT22;5193;51.032;6.356;2022-12-15T17:20:20;-4.20;99.90
10296;DHT22;5193;51.032;6.356;2022-12-15T17:22:52;-4.20;99.90
10296;DHT22;5193;51.032;6.356;2022-12-15T17:25:20;-4.30;99.90
10296;DHT22;5193;51.032;6.356;2022-12-15T17:27:48;-4.30;99.90
10296;DHT22;5193;51.032;6.356;2022-12-15T17:30:14;-4.40;99.90
10296;DHT22;5193;51.032;6.356;2022-12-15T17:32:41;-4.40;99.90
10296;DHT22;5193;51.032;6.356;2022-12-15T17:35:06;-4.50;99.90
10296;DHT22;5193;51.032;6.356;2022-12-15T17:37:32;-4.50;99.90
10296;DHT22;5193;51.032;6.356;2022-12-15T17:39:58;-4.50;99.90